Argenta, Illinois
Current Conditions -  °F | °C
As of 4:54 PM on Wednesday 22 Oct 2014 (Local Time) from KDEC Reporting Station
Clear Clear  
Wind Chill: 15°   Ceiling: Unl
Heat Index: 15°   Visibility: 10mi
Dew Point:   Wind: 7mph
Humidity: 46%   Direction: 110°ESE
Pressure: 30.25"   Gusts: NA
Location:  39.98°N, 88.82°W
Report Text: KDEC 222154Z 11006KT 10SM CLR 15/03 A3025 RMK AO2 SLP247 T01500033
Loading
Personal Weather Stations






























Interactive Weather Map
Tropical Storm Tracking
New forecast layout! Learn more

10-Day Weather Forecast

Advertisements
Track Severe Weather on mobile